createdAt,value
2018-05-16T00:02:12.497Z,8.20
2018-05-16T00:07:15.155Z,8.43
2018-05-16T00:12:17.586Z,9.63
2018-05-16T00:17:20.115Z,8.97
2018-05-16T00:22:22.560Z,10.30
2018-05-16T00:27:25.018Z,10.37
2018-05-16T00:32:27.551Z,9.23
2018-05-16T00:37:32.853Z,10.20
2018-05-16T00:42:35.295Z,10.17
2018-05-16T00:47:37.750Z,10.27
2018-05-16T00:52:40.258Z,10.30
2018-05-16T00:57:42.690Z,10.50
2018-05-16T01:02:45.139Z,10.80
2018-05-16T01:07:48.362Z,10.43
2018-05-16T01:12:51.578Z,10.37
2018-05-16T01:17:54.025Z,10.50
2018-05-16T01:22:56.478Z,10.37
2018-05-16T01:27:59.058Z,10.67
2018-05-16T01:33:03.808Z,10.90
2018-05-16T01:38:06.866Z,10.70
2018-05-16T01:43:09.541Z,11.90
2018-05-16T01:48:11.981Z,10.73
2018-05-16T01:53:15.311Z,11.63
2018-05-16T01:58:18.545Z,11.00
2018-05-16T02:03:21.176Z,11.70
2018-05-16T02:08:23.632Z,11.73
2018-05-16T02:13:26.068Z,11.87
2018-05-16T02:18:28.581Z,11.03
2018-05-16T02:23:32.153Z,9.60
2018-05-16T02:28:34.593Z,11.63
2018-05-16T02:33:53.622Z,13.13
2018-05-16T02:38:56.070Z,11.10
2018-05-16T02:43:59.299Z,12.67
2018-05-16T02:49:03.562Z,13.87
2018-05-16T02:54:06.180Z,13.60
2018-05-16T02:59:08.628Z,12.93
2018-05-16T03:04:11.152Z,12.37
2018-05-16T03:09:13.593Z,12.37
2018-05-16T03:14:16.828Z,13.10
2018-05-16T03:19:19.334Z,12.10
2018-05-16T03:24:21.801Z,12.50
2018-05-16T03:29:24.249Z,11.13
2018-05-16T03:34:28.246Z,10.53
2018-05-16T03:39:30.707Z,10.80
2018-05-16T03:44:34.200Z,12.10
2018-05-16T03:49:36.661Z,12.30
2018-05-16T03:54:39.106Z,11.33
2018-05-16T04:05:17.035Z,11.43
2018-05-16T04:10:19.670Z,12.13
2018-05-16T04:15:23.742Z,11.90
2018-05-16T04:20:27.682Z,11.70
2018-05-16T04:25:30.179Z,12.70
2018-05-16T04:30:32.619Z,11.90
2018-05-16T04:35:35.139Z,11.90
2018-05-16T04:40:37.513Z,10.13
2018-05-16T04:45:39.957Z,12.20
2018-05-16T04:50:42.406Z,14.20
2018-05-16T04:55:44.855Z,14.20
2018-05-16T05:00:48.086Z,14.20
2018-05-16T05:05:50.578Z,14.63
2018-05-16T05:10:53.030Z,15.07
2018-05-16T05:15:55.486Z,16.63
2018-05-16T05:20:57.960Z,17.03
2018-05-16T05:26:00.450Z,17.63
2018-05-16T05:31:02.901Z,19.23
2018-05-16T05:36:05.436Z,22.13
2018-05-16T05:41:07.929Z,24.37
2018-05-16T05:46:10.421Z,22.07
2018-05-16T05:51:12.874Z,18.33
2018-05-16T05:56:15.373Z,19.80
2018-05-16T06:01:18.597Z,17.57
2018-05-16T06:06:21.817Z,17.13
2018-05-16T06:11:24.321Z,15.87
2018-05-16T06:16:26.817Z,16.10
2018-05-16T06:21:29.309Z,15.73
2018-05-16T06:26:31.757Z,13.40
2018-05-16T06:31:34.208Z,12.73
2018-05-16T06:36:36.681Z,13.10
2018-05-16T06:41:39.133Z,13.23
2018-05-16T06:46:41.678Z,13.77
2018-05-16T06:51:44.161Z,14.43
2018-05-16T06:56:46.657Z,14.10
2018-05-16T07:01:49.165Z,13.60
2018-05-16T07:06:51.619Z,13.50
2018-05-16T07:11:54.857Z,13.23
2018-05-16T07:16:57.323Z,13.70
2018-05-16T07:21:59.758Z,13.07
2018-05-16T07:27:02.715Z,12.43
2018-05-16T07:32:05.950Z,13.03
2018-05-16T07:37:08.415Z,14.10
2018-05-16T07:42:10.857Z,13.97
2018-05-16T07:47:13.312Z,13.70
2018-05-16T07:52:16.541Z,15.00
2018-05-16T07:57:19.020Z,14.33
2018-05-16T08:02:22.345Z,14.30
2018-05-16T08:07:24.805Z,14.13
2018-05-16T08:12:28.050Z,15.87
2018-05-16T08:17:30.495Z,15.03
2018-05-16T08:22:33.715Z,16.10
2018-05-16T08:27:36.169Z,16.27
2018-05-16T08:32:38.621Z,17.30
2018-05-16T08:37:41.847Z,16.37
2018-05-16T08:42:44.306Z,16.27
2018-05-16T08:47:46.745Z,16.93
2018-05-16T08:52:49.203Z,15.27
2018-05-16T08:57:52.421Z,16.03
2018-05-16T09:02:55.754Z,15.97
2018-05-16T09:07:58.197Z,14.87
2018-05-16T09:13:00.647Z,13.37
2018-05-16T09:18:03.127Z,12.23
2018-05-16T09:23:05.596Z,13.07
2018-05-16T09:28:08.814Z,13.43
2018-05-16T09:33:12.040Z,14.77
2018-05-16T09:38:14.481Z,13.90
2018-05-16T09:43:17.711Z,13.43
2018-05-16T09:48:20.248Z,13.83
2018-05-16T09:53:22.699Z,14.30
2018-05-16T09:58:25.912Z,13.30
2018-05-16T10:03:29.133Z,14.43
2018-05-16T10:08:31.585Z,14.00
2018-05-16T10:13:34.128Z,15.07
2018-05-16T10:18:36.632Z,15.07
2018-05-16T10:23:39.152Z,14.87
2018-05-16T10:28:41.538Z,15.30
2018-05-16T10:33:43.994Z,14.97
2018-05-16T10:38:46.461Z,14.47
2018-05-16T10:43:49.685Z,15.47
2018-05-16T10:48:52.925Z,16.77
2018-05-16T10:53:55.365Z,13.63
2018-05-16T10:58:57.904Z,13.50
2018-05-16T11:04:00.402Z,14.00
2018-05-16T11:09:02.844Z,16.00
2018-05-16T11:14:05.295Z,14.53
2018-05-16T11:19:07.750Z,14.53
2018-05-16T11:24:10.985Z,14.50
2018-05-16T11:29:13.461Z,13.50
2018-05-16T11:34:16.677Z,14.90
2018-05-16T11:39:19.152Z,13.07
2018-05-16T11:44:22.365Z,13.93
2018-05-16T11:49:26.453Z,16.47
2018-05-16T11:54:28.943Z,15.27
2018-05-16T11:59:31.382Z,17.57
2018-05-16T12:04:34.610Z,17.27
2018-05-16T12:09:37.102Z,18.50
2018-05-16T12:14:39.618Z,18.40
2018-05-16T12:19:42.066Z,20.17
2018-05-16T12:24:45.400Z,20.20
2018-05-16T12:29:48.650Z,20.67
2018-05-16T12:34:51.113Z,21.83
2018-05-16T12:39:53.567Z,22.07
2018-05-16T12:44:56.099Z,23.03
2018-05-16T12:49:58.567Z,20.27
2018-05-16T12:55:01.789Z,20.93
2018-05-16T13:00:04.413Z,20.57
2018-05-16T13:05:06.886Z,19.60
2018-05-16T13:10:09.360Z,20.80
2018-05-16T13:15:12.578Z,21.10
2018-05-16T13:20:15.798Z,19.60
2018-05-16T13:25:18.257Z,23.20
2018-05-16T13:30:20.702Z,22.47
2018-05-16T13:35:23.157Z,20.03
2018-05-16T13:40:26.390Z,19.37
2018-05-16T13:45:28.846Z,20.17
2018-05-16T13:50:31.305Z,20.83
2018-05-16T13:55:33.759Z,23.17
2018-05-16T14:00:36.208Z,22.20
2018-05-16T14:05:40.176Z,20.10
2018-05-16T14:10:42.626Z,22.70
2018-05-16T14:15:45.069Z,22.67
2018-05-16T14:20:47.521Z,25.23
2018-05-16T14:25:50.054Z,24.07
2018-05-16T14:30:52.505Z,22.43
2018-05-16T14:35:56.145Z,25.13
2018-05-16T14:40:58.573Z,24.73
2018-05-16T14:46:01.026Z,24.20
2018-05-16T14:51:04.265Z,24.00
2018-05-16T14:56:07.637Z,21.50
2018-05-16T15:01:10.222Z,19.43
2018-05-16T15:06:13.441Z,21.20
2018-05-16T15:11:15.903Z,20.80
2018-05-16T15:16:18.354Z,21.33
2018-05-16T15:21:21.617Z,24.10
2018-05-16T15:26:24.039Z,24.43
2018-05-16T15:31:26.486Z,25.57
2018-05-16T15:36:28.990Z,23.73
2018-05-16T15:41:31.442Z,24.20
2018-05-16T15:46:33.901Z,23.07
2018-05-16T15:51:36.459Z,24.40
2018-05-16T15:56:38.911Z,23.13
2018-05-16T16:01:42.130Z,24.70
2018-05-16T16:06:44.640Z,23.53
2018-05-16T16:11:47.146Z,25.30
2018-05-16T16:16:49.627Z,25.93
2018-05-16T16:21:52.503Z,26.60
2018-05-16T16:26:55.729Z,27.17
2018-05-16T16:31:58.186Z,27.60
2018-05-16T16:37:01.401Z,27.80
2018-05-16T16:42:04.615Z,29.67
2018-05-16T16:47:07.853Z,31.97
2018-05-16T16:52:10.302Z,31.30
2018-05-16T16:57:12.754Z,29.10
2018-05-16T17:02:15.218Z,28.60
2018-05-16T17:07:18.433Z,29.43
2018-05-16T17:12:20.880Z,28.20
2018-05-16T17:17:23.336Z,31.93
2018-05-16T17:22:25.833Z,33.60
2018-05-16T17:27:28.317Z,31.10
2018-05-16T17:32:30.778Z,33.83
2018-05-16T17:37:33.985Z,31.30
2018-05-16T17:42:37.220Z,34.73
2018-05-16T17:47:39.717Z,33.17
2018-05-16T17:52:42.160Z,32.77
2018-05-16T17:57:45.377Z,34.70
2018-05-16T18:02:48.602Z,34.20
2018-05-16T18:07:52.024Z,31.90
2018-05-16T18:18:32.046Z,31.37
2018-05-16T18:23:34.488Z,29.27
2018-05-16T18:28:36.989Z,18.30
2018-05-16T18:33:39.434Z,16.13
2018-05-16T18:38:41.881Z,15.20
2018-05-16T18:43:44.341Z,12.87
2018-05-16T18:48:46.829Z,11.50
2018-05-16T18:53:49.276Z,10.33
2018-05-16T18:58:52.505Z,10.40
2018-05-16T19:03:55.033Z,10.20
2018-05-16T19:08:57.473Z,11.53
2018-05-16T19:14:00.706Z,11.10
2018-05-16T19:19:03.176Z,11.90
2018-05-16T19:24:06.380Z,11.07
2018-05-16T19:29:09.590Z,9.77
2018-05-16T19:34:12.797Z,9.33
2018-05-16T19:39:16.012Z,9.17
2018-05-16T19:44:19.228Z,9.27
2018-05-16T19:49:22.440Z,10.03
2018-05-16T19:54:25.653Z,9.87
2018-05-16T19:59:28.878Z,9.70
2018-05-16T20:04:31.349Z,9.20
2018-05-16T20:09:35.405Z,8.87
2018-05-16T20:14:37.877Z,10.23
2018-05-16T20:19:41.109Z,10.40
2018-05-16T20:24:43.556Z,9.63
2018-05-16T20:29:46.006Z,9.93
2018-05-16T20:34:48.454Z,9.47
2018-05-16T20:39:51.705Z,9.37
2018-05-16T20:44:54.910Z,9.37
2018-05-16T20:49:57.345Z,9.30
2018-05-16T20:54:59.890Z,9.53
2018-05-16T21:00:02.389Z,9.90
2018-05-16T21:05:04.842Z,9.73
2018-05-16T21:10:08.053Z,8.43
2018-05-16T21:15:11.288Z,7.57
2018-05-16T21:20:13.787Z,8.97
2018-05-16T21:25:16.229Z,9.03
2018-05-16T21:30:18.681Z,8.63
2018-05-16T21:35:21.165Z,9.03
2018-05-16T21:40:23.617Z,8.70
2018-05-16T21:45:26.865Z,8.23
2018-05-16T21:50:29.305Z,9.53
2018-05-16T21:55:32.578Z,9.47
2018-05-16T22:00:35.069Z,10.17
2018-05-16T22:05:37.512Z,10.03
2018-05-16T22:10:40.013Z,11.07
2018-05-16T22:15:42.409Z,9.53
2018-05-16T22:20:45.634Z,9.33
2018-05-16T22:25:48.837Z,8.93
2018-05-16T22:30:57.789Z,8.03
2018-05-16T22:36:06.833Z,8.30
2018-05-16T22:41:15.665Z,9.30
2018-05-16T22:46:18.901Z,9.30
2018-05-16T22:51:22.117Z,9.97
2018-05-16T22:56:24.609Z,9.67
2018-05-16T23:01:27.057Z,8.63
2018-05-16T23:06:29.845Z,8.70
2018-05-16T23:11:32.297Z,7.57
2018-05-16T23:16:34.746Z,9.03
2018-05-16T23:21:37.278Z,7.47
2018-05-16T23:26:39.726Z,8.00
2018-05-16T23:31:42.174Z,7.13
2018-05-16T23:36:44.620Z,7.70
2018-05-16T23:41:47.067Z,7.07
2018-05-16T23:46:49.509Z,6.53
2018-05-16T23:51:52.750Z,6.57
2018-05-16T23:56:55.192Z,7.33
